createdAt,value
2023-06-08T00:00:41.082Z,98451.97
2023-06-08T00:01:45.215Z,98453.09
2023-06-08T00:02:48.300Z,98444.56
2023-06-08T00:03:50.787Z,98441.41
2023-06-08T00:04:54.075Z,98444.03
2023-06-08T00:05:58.803Z,98448.56
2023-06-08T00:07:04.706Z,98445.13
2023-06-08T00:08:10.267Z,98447.06
2023-06-08T00:09:13.289Z,98447.63
2023-06-08T00:10:16.590Z,98444.75
2023-06-08T00:11:19.433Z,98451.91
2023-06-08T00:12:22.116Z,98455.75
2023-06-08T00:13:24.959Z,98454.25
2023-06-08T00:14:27.254Z,98446.56
2023-06-08T00:15:30.096Z,98448.47
2023-06-08T00:16:33.927Z,98454.81
2023-06-08T00:17:36.913Z,98452.19
2023-06-08T00:18:40.398Z,98450.53
2023-06-08T00:19:44.370Z,98448.75
2023-06-08T00:20:47.712Z,98449.59
2023-06-08T00:21:50.515Z,98446.25
2023-06-08T00:22:53.069Z,98450.53
2023-06-08T00:23:55.970Z,98446.97
2023-06-08T00:24:57.781Z,98442.69
2023-06-08T00:26:02.955Z,98443.53
2023-06-08T00:27:06.826Z,98444.47
2023-06-08T00:28:09.816Z,98447.09
2023-06-08T00:29:11.682Z,98443.78
2023-06-08T00:30:16.942Z,98448.34
2023-06-08T00:31:20.481Z,98444.88
2023-06-08T00:32:23.679Z,98438.84
2023-06-08T00:33:25.583Z,98447.78
2023-06-08T00:34:28.960Z,98446.16
2023-06-08T00:35:31.076Z,98448.06
2023-06-08T00:36:34.014Z,98450.13
2023-06-08T00:37:37.044Z,98446.00
2023-06-08T00:38:39.877Z,98445.19
2023-06-08T00:39:41.774Z,98440.91
2023-06-08T00:40:45.519Z,98438.88
2023-06-08T00:41:48.866Z,98442.72
2023-06-08T00:42:51.763Z,98436.09
2023-06-08T00:43:53.639Z,98435.44
2023-06-08T00:44:56.430Z,98428.53
2023-06-08T00:45:58.488Z,98430.31
2023-06-08T00:47:01.464Z,98433.91
2023-06-08T00:48:04.197Z,98435.69
2023-06-08T00:49:08.678Z,98427.19
2023-06-08T00:50:10.835Z,98436.91
2023-06-08T00:51:14.008Z,98437.75
2023-06-08T00:52:16.699Z,98433.47
2023-06-08T00:53:20.858Z,98438.56
2023-06-08T00:54:26.975Z,98432.66
2023-06-08T00:55:30.763Z,98434.44
2023-06-08T00:56:35.326Z,98427.59
2023-06-08T00:57:39.480Z,98427.59
2023-06-08T00:58:48.007Z,98427.59
2023-06-08T00:59:50.789Z,98423.19
2023-06-08T01:01:00.407Z,98426.06
2023-06-08T01:02:05.271Z,98431.00
2023-06-08T01:03:08.284Z,98425.38
2023-06-08T01:04:11.055Z,98430.03
2023-06-08T01:05:17.475Z,98422.34
2023-06-08T01:06:22.061Z,98427.69
2023-06-08T01:07:29.776Z,98427.81
2023-06-08T01:08:43.805Z,98424.38
2023-06-08T01:09:53.037Z,98424.38
2023-06-08T01:10:59.310Z,98420.13
2023-06-08T01:12:11.409Z,98423.69
2023-06-08T01:13:18.561Z,98423.69
2023-06-08T01:14:27.487Z,98413.53
2023-06-08T01:15:32.926Z,98422.31
2023-06-08T01:16:39.437Z,98417.38
2023-06-08T01:17:43.854Z,98421.72
2023-06-08T01:18:48.482Z,98422.81
2023-06-08T01:20:06.792Z,98419.53
2023-06-08T01:21:15.318Z,98418.16
2023-06-08T01:22:21.817Z,98416.50
2023-06-08T01:23:35.708Z,98426.94
2023-06-08T01:24:41.432Z,98423.47
2023-06-08T01:25:46.899Z,98425.28
2023-06-08T01:26:50.536Z,98422.66
2023-06-08T01:28:00.204Z,98418.16
2023-06-08T01:29:02.487Z,98411.28
2023-06-08T01:30:06.027Z,98425.28
2023-06-08T01:31:08.015Z,98415.78
2023-06-08T01:32:12.938Z,98418.41
2023-06-08T01:33:17.697Z,98420.19
2023-06-08T01:34:22.525Z,98411.53
2023-06-08T01:35:24.381Z,98422.13
2023-06-08T01:36:29.308Z,98416.09
2023-06-08T01:37:36.840Z,98419.50
2023-06-08T01:38:45.553Z,98417.84
2023-06-08T01:39:53.257Z,98416.09
2023-06-08T01:40:57.336Z,98422.13
2023-06-08T01:42:01.580Z,98422.81
2023-06-08T01:43:06.495Z,98423.63
2023-06-08T01:44:09.870Z,98420.06
2023-06-08T01:45:17.973Z,98425.16
2023-06-08T01:46:21.453Z,98415.41
2023-06-08T01:49:08.739Z,98417.59
2023-06-08T01:50:11.660Z,98417.84
2023-06-08T01:51:15.752Z,98421.56
2023-06-08T01:52:17.683Z,98424.31
2023-06-08T01:53:20.667Z,98420.31
2023-06-08T01:54:23.007Z,98421.38
2023-06-08T01:55:29.122Z,98426.06
2023-06-08T01:56:31.987Z,98415.06
2023-06-08T01:57:34.799Z,98414.38
2023-06-08T01:58:36.799Z,98422.19
2023-06-08T01:59:39.754Z,98418.88
2023-06-08T02:00:41.622Z,98422.31
2023-06-08T02:01:44.602Z,98417.25
2023-06-08T02:02:48.085Z,98413.81
2023-06-08T02:03:51.086Z,98422.59
2023-06-08T02:04:53.036Z,98424.38
2023-06-08T02:05:56.024Z,98418.22
2023-06-08T02:06:57.884Z,98421.50
2023-06-08T02:08:01.383Z,98422.19
2023-06-08T02:09:03.819Z,98429.06
2023-06-08T02:10:07.953Z,98419.31
2023-06-08T02:11:14.069Z,98430.47
2023-06-08T02:12:16.930Z,98420.97
2023-06-08T02:13:18.752Z,98428.78
2023-06-08T02:14:21.574Z,98427.72
2023-06-08T02:15:26.409Z,98432.78
2023-06-08T02:16:29.242Z,98430.06
2023-06-08T02:17:34.731Z,98427.16
2023-06-08T02:18:41.621Z,98430.34
2023-06-08T02:19:43.519Z,98428.28
2023-06-08T02:20:46.323Z,98432.41
2023-06-08T02:21:48.175Z,98420.75
2023-06-08T02:22:53.755Z,98425.59
2023-06-08T02:23:55.630Z,98423.66
2023-06-08T02:24:58.491Z,98417.25
2023-06-08T02:26:00.431Z,98423.97
2023-06-08T02:27:04.984Z,98422.06
2023-06-08T02:28:06.991Z,98421.91
2023-06-08T02:29:09.798Z,98426.06
2023-06-08T02:30:13.263Z,98429.19
2023-06-08T02:31:16.218Z,98429.19
2023-06-08T02:32:18.079Z,98426.88
2023-06-08T02:33:21.607Z,98425.09
2023-06-08T02:34:24.418Z,98427.81
2023-06-08T02:35:27.324Z,98429.50
2023-06-08T02:36:32.896Z,98421.50
2023-06-08T02:37:37.981Z,98429.34
2023-06-08T02:38:40.031Z,98432.78
2023-06-08T02:39:44.323Z,98427.56
2023-06-08T02:40:46.270Z,98428.38
2023-06-08T02:41:50.812Z,98428.13
2023-06-08T02:42:54.051Z,98426.19
2023-06-08T02:43:59.787Z,98425.94
2023-06-08T02:45:02.720Z,98427.44
2023-06-08T02:46:05.768Z,98426.34
2023-06-08T02:47:08.967Z,98431.28
2023-06-08T02:48:11.842Z,98431.97
2023-06-08T02:49:13.775Z,98424.00
2023-06-08T02:50:16.673Z,98435.00
2023-06-08T02:51:20.150Z,98428.25
2023-06-08T02:52:23.641Z,98426.75
2023-06-08T02:53:25.535Z,98430.19
2023-06-08T02:54:28.358Z,98438.03
2023-06-08T02:55:36.152Z,98431.03
2023-06-08T02:56:42.966Z,98428.41
2023-06-08T02:57:45.012Z,98430.63
2023-06-08T02:58:50.767Z,98423.31
2023-06-08T02:59:53.705Z,98424.69
2023-06-08T03:01:11.804Z,98429.66
2023-06-08T03:02:45.270Z,98430.31
2023-06-08T03:03:48.475Z,98431.03
2023-06-08T03:04:54.553Z,98423.72
2023-06-08T03:06:00.248Z,98432.25
2023-06-08T03:07:10.539Z,98431.44
2023-06-08T03:08:14.985Z,98428.94
2023-06-08T03:09:18.837Z,98432.53
2023-06-08T03:10:27.617Z,98432.69
2023-06-08T03:11:29.656Z,98433.34
2023-06-08T03:12:32.488Z,98442.00
2023-06-08T03:13:36.301Z,98426.22
2023-06-08T03:14:41.838Z,98437.50
2023-06-08T03:15:46.135Z,98433.91
2023-06-08T03:16:49.690Z,98437.19
2023-06-08T03:17:53.024Z,98440.50
2023-06-08T03:18:57.424Z,98439.41
2023-06-08T03:20:01.065Z,98439.25
2023-06-08T03:21:06.047Z,98446.00
2023-06-08T03:22:08.632Z,98440.63
2023-06-08T03:23:33.329Z,98441.44
2023-06-08T03:24:37.574Z,98437.19
2023-06-08T03:25:40.500Z,98435.56
2023-06-08T03:26:44.986Z,98439.81
2023-06-08T03:27:49.295Z,98437.19
2023-06-08T03:28:51.716Z,98441.34
2023-06-08T03:29:56.399Z,98445.44
2023-06-08T03:31:02.346Z,98451.91
2023-06-08T03:32:13.641Z,98435.13
2023-06-08T03:33:17.016Z,98442.69
2023-06-08T03:34:27.267Z,98440.75
2023-06-08T03:35:34.135Z,98431.53
2023-06-08T03:36:51.864Z,98442.25
2023-06-08T03:37:57.714Z,98439.78
2023-06-08T03:39:00.538Z,98442.47
2023-06-08T03:40:02.567Z,98446.88
2023-06-08T03:41:06.766Z,98441.47
2023-06-08T03:42:09.386Z,98441.44
2023-06-08T03:43:16.122Z,98443.91
2023-06-08T03:44:18.636Z,98446.47
2023-06-08T03:45:23.961Z,98438.59
2023-06-08T03:46:28.597Z,98443.06
2023-06-08T03:47:33.444Z,98445.94
2023-06-08T03:48:36.528Z,98448.13
2023-06-08T03:49:40.398Z,98450.31
2023-06-08T03:50:45.309Z,98456.75
2023-06-08T03:51:49.109Z,98460.72
2023-06-08T03:52:51.170Z,98454.38
2023-06-08T03:53:54.199Z,98456.81
2023-06-08T03:54:57.189Z,98454.91
2023-06-08T03:56:00.094Z,98454.91
2023-06-08T03:57:02.764Z,98457.66
2023-06-08T03:58:06.196Z,98462.88
2023-06-08T03:59:08.283Z,98461.09
2023-06-08T04:00:12.709Z,98461.78
2023-06-08T04:01:18.897Z,98459.84
2023-06-08T04:02:21.935Z,98455.78
2023-06-08T04:03:26.098Z,98461.56
2023-06-08T04:04:30.515Z,98460.31
2023-06-08T04:05:33.406Z,98459.03
2023-06-08T04:06:39.614Z,98459.53
2023-06-08T04:07:43.177Z,98463.38
2023-06-08T04:08:46.460Z,98464.56
2023-06-08T04:09:48.576Z,98463.13
2023-06-08T04:10:51.386Z,98463.50
2023-06-08T04:11:53.447Z,98459.50
2023-06-08T04:12:59.485Z,98456.94
2023-06-08T04:14:01.386Z,98450.63
2023-06-08T04:15:04.953Z,98448.47
2023-06-08T04:16:09.862Z,98442.00
2023-06-08T04:17:17.596Z,98442.41
2023-06-08T04:18:19.808Z,98443.78
2023-06-08T04:19:22.675Z,98443.69
2023-06-08T04:20:24.526Z,98439.13
2023-06-08T04:21:28.430Z,98443.28
2023-06-08T04:22:36.321Z,98443.31
2023-06-08T04:23:39.680Z,98440.88
2023-06-08T04:24:43.542Z,98439.44
2023-06-08T04:25:47.208Z,98442.41
2023-06-08T04:26:49.202Z,98438.13
2023-06-08T04:27:53.075Z,98434.72
2023-06-08T04:28:56.678Z,98436.78
2023-06-08T04:30:05.550Z,98442.53
2023-06-08T04:31:09.254Z,98439.94
2023-06-08T04:32:12.736Z,98443.69
2023-06-08T04:33:16.223Z,98442.06
2023-06-08T04:34:19.906Z,98443.16
2023-06-08T04:35:22.503Z,98446.09
2023-06-08T04:36:25.506Z,98440.09
2023-06-08T04:37:29.239Z,98439.00
2023-06-08T04:38:31.234Z,98440.66
2023-06-08T04:39:35.055Z,98448.44
2023-06-08T04:40:38.531Z,98448.09
2023-06-08T04:41:42.503Z,98450.53
2023-06-08T04:42:45.635Z,98444.38
2023-06-08T04:43:50.685Z,98445.66
2023-06-08T04:45:00.738Z,98446.94
2023-06-08T04:46:06.240Z,98445.59
2023-06-08T04:47:10.122Z,98435.63
2023-06-08T04:48:13.324Z,98442.25
2023-06-08T04:49:17.717Z,98436.94
2023-06-08T04:50:19.693Z,98439.34
2023-06-08T04:51:24.729Z,98435.84
2023-06-08T04:52:31.192Z,98437.63
2023-06-08T04:53:34.818Z,98441.38
2023-06-08T04:54:38.353Z,98439.22
2023-06-08T04:55:46.335Z,98438.66
2023-06-08T04:56:49.187Z,98441.31
2023-06-08T04:57:51.174Z,98444.75
2023-06-08T04:58:53.958Z,98447.41
2023-06-08T04:59:55.913Z,98437.84
2023-06-08T05:00:59.523Z,98433.94
2023-06-08T05:02:02.530Z,98435.72
2023-06-08T05:03:05.618Z,98442.16
2023-06-08T05:04:09.049Z,98440.47
2023-06-08T05:05:14.078Z,98437.13
2023-06-08T05:06:16.024Z,98429.03
2023-06-08T05:07:18.860Z,98435.44
2023-06-08T05:08:20.723Z,98436.94
2023-06-08T05:09:23.639Z,98439.03
2023-06-08T05:10:25.448Z,98438.78
2023-06-08T05:11:28.272Z,98435.88
2023-06-08T05:12:30.121Z,98440.09
2023-06-08T05:13:32.926Z,98446.13
2023-06-08T05:14:34.762Z,98438.13
2023-06-08T05:15:37.555Z,98435.00
2023-06-08T05:16:39.511Z,98437.19
2023-06-08T05:17:42.389Z,98436.38
2023-06-08T05:18:44.424Z,98443.75
2023-06-08T05:19:47.252Z,98446.47
2023-06-08T05:20:50.431Z,98441.66
2023-06-08T05:21:53.276Z,98438.25
2023-06-08T05:22:55.110Z,98444.72
2023-06-08T05:23:57.875Z,98447.75
2023-06-08T05:24:59.786Z,98435.34
2023-06-08T05:26:02.591Z,98445.91
2023-06-08T05:27:05.299Z,98447.94
2023-06-08T05:28:08.179Z,98448.31
2023-06-08T05:29:09.972Z,98443.94
2023-06-08T05:30:13.341Z,98442.09
2023-06-08T05:31:15.409Z,98448.75
2023-06-08T05:32:18.219Z,98442.13
2023-06-08T05:33:20.084Z,98447.94
2023-06-08T05:34:22.924Z,98448.22
2023-06-08T05:35:25.060Z,98450.31
2023-06-08T05:36:29.199Z,98451.56
2023-06-08T05:37:32.087Z,98453.81
2023-06-08T05:38:33.967Z,98454.22
2023-06-08T05:39:36.726Z,98450.78
2023-06-08T05:40:38.634Z,98455.06
2023-06-08T05:41:41.414Z,98461.19
2023-06-08T05:42:43.273Z,98454.00
2023-06-08T05:43:46.104Z,98454.38
2023-06-08T05:44:47.986Z,98455.81
2023-06-08T05:45:50.858Z,98447.19
2023-06-08T05:46:52.716Z,98446.16
2023-06-08T05:47:55.672Z,98453.91
2023-06-08T05:48:57.595Z,98450.94
2023-06-08T05:50:00.523Z,98450.31
2023-06-08T05:51:02.555Z,98447.56
2023-06-08T05:52:07.291Z,98452.19
2023-06-08T05:53:10.179Z,98460.72
2023-06-08T05:54:11.988Z,98455.56
2023-06-08T05:55:14.777Z,98456.88
2023-06-08T05:56:16.626Z,98465.03
2023-06-08T05:57:19.434Z,98462.28
2023-06-08T05:58:26.288Z,98456.47
2023-06-08T05:59:33.826Z,98456.41
2023-06-08T06:00:36.342Z,98460.44
2023-06-08T06:01:39.175Z,98456.88
2023-06-08T06:02:41.502Z,98451.50
2023-06-08T06:03:44.623Z,98456.03
2023-06-08T06:04:46.747Z,98455.16
2023-06-08T06:05:50.281Z,98449.38
2023-06-08T06:06:52.092Z,98451.63
2023-06-08T06:07:56.219Z,98450.13
2023-06-08T06:08:58.125Z,98455.59
2023-06-08T06:10:01.004Z,98452.66
2023-06-08T06:11:02.953Z,98454.56
2023-06-08T06:12:08.448Z,98455.16
2023-06-08T06:13:11.240Z,98453.09
2023-06-08T06:14:13.079Z,98458.22
2023-06-08T06:15:15.923Z,98455.31
2023-06-08T06:16:19.581Z,98456.50
2023-06-08T06:17:21.770Z,98461.47
2023-06-08T06:18:24.719Z,98457.63
2023-06-08T06:19:26.613Z,98460.72
2023-06-08T06:20:30.923Z,98456.97
2023-06-08T06:21:32.803Z,98445.38
2023-06-08T06:22:35.673Z,98457.25
2023-06-08T06:23:39.129Z,98461.16
2023-06-08T06:24:42.107Z,98458.97
2023-06-08T06:25:44.206Z,98457.66
2023-06-08T06:26:46.989Z,98461.78
2023-06-08T06:27:48.932Z,98464.47
2023-06-08T06:28:51.697Z,98462.19
2023-06-08T06:29:53.958Z,98457.03
2023-06-08T06:30:56.799Z,98459.75
2023-06-08T06:31:59.147Z,98467.63
2023-06-08T06:33:02.108Z,98460.78
2023-06-08T06:34:04.146Z,98458.09
2023-06-08T06:35:08.081Z,98466.03
2023-06-08T06:36:09.886Z,98466.09
2023-06-08T06:37:12.697Z,98461.91
2023-06-08T06:38:14.592Z,98464.50
2023-06-08T06:39:19.916Z,98475.09
2023-06-08T06:40:21.946Z,98465.19
2023-06-08T06:41:24.706Z,98462.75
2023-06-08T06:42:26.557Z,98479.06
2023-06-08T06:43:37.332Z,98468.69
2023-06-08T06:44:41.360Z,98471.34
2023-06-08T06:45:45.035Z,98470.91
2023-06-08T06:46:47.212Z,98470.69
2023-06-08T06:47:50.076Z,98467.88
2023-06-08T06:48:52.198Z,98464.25
2023-06-08T06:49:55.032Z,98461.00
2023-06-08T06:50:56.873Z,98460.88
2023-06-08T06:51:59.677Z,98466.59
2023-06-08T06:53:01.570Z,98466.34
2023-06-08T06:54:04.741Z,98469.03
2023-06-08T06:55:09.205Z,98460.97
2023-06-08T06:56:11.255Z,98458.59
2023-06-08T06:57:14.014Z,98466.84
2023-06-08T06:58:16.206Z,98464.28
2023-06-08T06:59:21.497Z,98465.34
2023-06-08T07:00:25.002Z,98456.16
2023-06-08T07:01:27.961Z,98451.38
2023-06-08T07:02:29.930Z,98456.25
2023-06-08T07:03:32.889Z,98448.56
2023-06-08T07:04:34.741Z,98457.97
2023-06-08T07:05:38.288Z,98461.34
2023-06-08T07:06:42.707Z,98462.91
2023-06-08T07:07:45.727Z,98458.13
2023-06-08T07:08:47.571Z,98461.13
2023-06-08T07:09:50.355Z,98451.06
2023-06-08T07:10:53.501Z,98455.97
2023-06-08T07:12:13.593Z,98467.84
2023-06-08T07:13:18.258Z,98464.84
2023-06-08T07:14:20.073Z,98462.25
2023-06-08T07:15:22.953Z,98462.34
2023-06-08T07:16:27.751Z,98470.78
2023-06-08T07:17:30.863Z,98468.44
2023-06-08T07:18:33.052Z,98472.31
2023-06-08T07:19:36.055Z,98473.28
2023-06-08T07:20:38.393Z,98468.97
2023-06-08T07:21:49.397Z,98474.28
2023-06-08T07:22:57.366Z,98474.53
2023-06-08T07:24:25.835Z,98473.13
2023-06-08T07:26:25.190Z,98476.25
2023-06-08T07:26:57.444Z,98477.06
2023-06-08T07:27:59.344Z,98470.53
2023-06-08T07:29:04.137Z,98473.94
2023-06-08T07:30:08.279Z,98479.56
2023-06-08T07:31:10.422Z,98487.81
2023-06-08T07:32:13.436Z,98484.91
2023-06-08T07:33:15.318Z,98489.44
2023-06-08T07:34:18.170Z,98487.94
2023-06-08T07:35:21.732Z,98488.53
2023-06-08T07:36:24.650Z,98489.91
2023-06-08T07:37:26.526Z,98488.16
2023-06-08T07:38:29.404Z,98490.41
2023-06-08T07:39:31.243Z,98491.31
2023-06-08T07:40:34.066Z,98486.28
2023-06-08T07:41:35.987Z,98487.56
2023-06-08T07:42:40.122Z,98496.31
2023-06-08T07:43:41.993Z,98494.59
2023-06-08T07:44:44.846Z,98495.50
2023-06-08T07:45:46.650Z,98483.97
2023-06-08T07:46:49.506Z,98490.09
2023-06-08T07:47:51.372Z,98486.34
2023-06-08T07:48:54.190Z,98485.91
2023-06-08T07:49:57.023Z,98480.94
2023-06-08T07:50:59.918Z,98483.09
2023-06-08T07:52:01.732Z,98480.13
2023-06-08T07:53:04.509Z,98490.47
2023-06-08T07:54:07.360Z,98478.94
2023-06-08T07:55:10.045Z,98476.47
2023-06-08T07:56:12.873Z,98483.72
2023-06-08T07:57:15.682Z,98473.59
2023-06-08T07:58:18.867Z,98480.22
2023-06-08T07:59:21.779Z,98471.78
2023-06-08T08:00:24.652Z,98476.22
2023-06-08T08:01:28.370Z,98480.44
2023-06-08T08:02:30.403Z,98481.63
2023-06-08T08:03:38.657Z,98483.16
2023-06-08T08:04:41.762Z,98484.94
2023-06-08T08:05:44.606Z,98481.44
2023-06-08T08:06:46.652Z,98479.56
2023-06-08T08:07:49.458Z,98479.00
2023-06-08T08:08:51.477Z,98484.06
2023-06-08T08:09:54.326Z,98493.56
2023-06-08T08:10:57.115Z,98487.31
2023-06-08T08:11:59.924Z,98487.88
2023-06-08T08:13:01.775Z,98498.56
2023-06-08T08:14:10.400Z,98488.81
2023-06-08T08:15:12.302Z,98495.78
2023-06-08T08:16:15.472Z,98495.19
2023-06-08T08:17:17.337Z,98497.03
2023-06-08T08:18:20.577Z,98498.34
2023-06-08T08:19:23.565Z,98498.66
2023-06-08T08:20:25.468Z,98496.28
2023-06-08T08:21:28.246Z,98498.91
2023-06-08T08:22:30.097Z,98503.31
2023-06-08T08:23:32.963Z,98506.44
2023-06-08T08:24:34.840Z,98500.88
2023-06-08T08:25:37.733Z,98502.84
2023-06-08T08:26:41.731Z,98501.47
2023-06-08T08:27:44.572Z,98500.63
2023-06-08T08:28:48.201Z,98500.72
2023-06-08T08:29:52.376Z,98492.53
2023-06-08T08:30:55.299Z,98494.75
2023-06-08T08:31:58.319Z,98494.44
2023-06-08T08:33:00.277Z,98496.91
2023-06-08T08:34:03.092Z,98490.84
2023-06-08T08:35:06.917Z,98496.84
2023-06-08T08:36:08.732Z,98498.13
2023-06-08T08:37:11.512Z,98498.41
2023-06-08T08:38:13.385Z,98493.84
2023-06-08T08:39:16.943Z,98497.75
2023-06-08T08:40:18.828Z,98497.22
2023-06-08T08:41:22.553Z,98503.63
2023-06-08T08:42:26.370Z,98493.28
2023-06-08T08:43:39.586Z,98501.06
2023-06-08T08:44:43.617Z,98492.78
2023-06-08T08:45:47.031Z,98494.75
2023-06-08T08:46:51.113Z,98504.59
2023-06-08T08:47:54.644Z,98489.94
2023-06-08T08:48:59.324Z,98498.94
2023-06-08T08:50:07.628Z,98495.19
2023-06-08T08:51:14.467Z,98493.31
2023-06-08T08:52:20.418Z,98503.78
2023-06-08T08:53:28.569Z,98505.00
2023-06-08T08:54:34.916Z,98506.56
2023-06-08T08:55:37.760Z,98501.91
2023-06-08T08:56:40.724Z,98498.44
2023-06-08T08:57:42.881Z,98505.09
2023-06-08T08:58:46.157Z,98500.69
2023-06-08T08:59:48.177Z,98510.13
2023-06-08T09:00:53.110Z,98504.06
2023-06-08T09:01:55.045Z,98505.78
2023-06-08T09:02:57.958Z,98495.31
2023-06-08T09:03:59.893Z,98497.69
2023-06-08T09:05:04.961Z,98495.22
2023-06-08T09:06:06.850Z,98497.31
2023-06-08T09:07:09.627Z,98494.63
2023-06-08T09:08:11.944Z,98496.69
2023-06-08T09:09:14.732Z,98488.19
2023-06-08T09:10:19.172Z,98488.09
2023-06-08T09:11:22.396Z,98490.47
2023-06-08T09:12:24.594Z,98480.50
2023-06-08T09:13:27.497Z,98492.16
2023-06-08T09:14:30.258Z,98490.56
2023-06-08T09:15:35.131Z,98492.38
2023-06-08T09:16:44.443Z,98487.94
2023-06-08T09:17:50.228Z,98489.53
2023-06-08T09:19:07.762Z,98489.53
2023-06-08T09:20:11.450Z,98487.44
2023-06-08T09:21:24.063Z,98490.13
2023-06-08T09:22:29.313Z,98488.13
2023-06-08T09:23:33.810Z,98497.44
2023-06-08T09:24:37.066Z,98484.06
2023-06-08T09:25:39.331Z,98480.00
2023-06-08T09:26:47.133Z,98484.91
2023-06-08T09:27:49.096Z,98485.84
2023-06-08T09:28:51.896Z,98491.91
2023-06-08T09:29:55.302Z,98486.44
2023-06-08T09:30:59.273Z,98489.00
2023-06-08T09:32:02.738Z,98487.97
2023-06-08T09:33:20.435Z,98483.19
2023-06-08T09:34:22.853Z,98488.28
2023-06-08T09:35:26.068Z,98479.34
2023-06-08T09:36:28.110Z,98480.72
2023-06-08T09:37:31.696Z,98479.63
2023-06-08T09:38:34.989Z,98482.84
2023-06-08T09:39:41.101Z,98482.66
2023-06-08T09:40:43.976Z,98467.53
2023-06-08T09:41:57.741Z,98471.88
2023-06-08T09:42:59.609Z,98477.81
2023-06-08T09:44:02.789Z,98474.63
2023-06-08T09:45:09.208Z,98471.44
2023-06-08T09:46:17.308Z,98471.75
2023-06-08T09:47:26.625Z,98462.13
2023-06-08T09:48:28.837Z,98460.28
2023-06-08T09:49:31.864Z,98462.25
2023-06-08T09:50:33.710Z,98467.09
2023-06-08T09:51:37.693Z,98459.81
2023-06-08T09:52:41.899Z,98463.88
2023-06-08T09:53:44.646Z,98460.81
2023-06-08T09:54:48.260Z,98457.03
2023-06-08T09:55:51.287Z,98467.28
2023-06-08T09:56:55.999Z,98464.03
2023-06-08T09:57:58.899Z,98461.34
2023-06-08T09:59:06.112Z,98458.13
2023-06-08T10:00:15.648Z,98450.34
2023-06-08T10:01:19.297Z,98456.84
2023-06-08T10:02:26.961Z,98463.00
2023-06-08T10:03:31.418Z,98458.66
2023-06-08T10:04:37.664Z,98450.59
2023-06-08T10:05:45.035Z,98448.47
2023-06-08T10:06:48.263Z,98450.38
2023-06-08T10:07:54.531Z,98449.56
2023-06-08T10:08:57.487Z,98443.09
2023-06-08T10:10:05.556Z,98443.91
2023-06-08T10:11:11.416Z,98435.53
2023-06-08T10:12:14.806Z,98446.50
2023-06-08T10:13:17.087Z,98441.09
2023-06-08T10:14:20.063Z,98448.66
2023-06-08T10:15:23.479Z,98439.78
2023-06-08T10:16:26.443Z,98441.66
2023-06-08T10:17:31.627Z,98430.41
2023-06-08T10:18:35.584Z,98445.25
2023-06-08T10:19:37.499Z,98435.56
2023-06-08T10:20:40.558Z,98439.88
2023-06-08T10:21:42.744Z,98434.47
2023-06-08T10:22:46.358Z,98434.75
2023-06-08T10:23:48.325Z,98434.22
2023-06-08T10:25:08.014Z,98437.16
2023-06-08T10:26:13.806Z,98431.53
2023-06-08T10:27:19.260Z,98437.44
2023-06-08T10:28:22.489Z,98434.22
2023-06-08T10:29:28.212Z,98430.97
2023-06-08T10:30:32.641Z,98431.78
2023-06-08T10:31:35.716Z,98437.16
2023-06-08T10:32:43.587Z,98432.84
2023-06-08T10:33:45.439Z,98433.38
2023-06-08T10:34:51.460Z,98435.53
2023-06-08T10:36:04.215Z,98432.53
2023-06-08T10:37:07.169Z,98428.50
2023-06-08T10:38:10.177Z,98428.53
2023-06-08T10:39:15.326Z,98425.03
2023-06-08T10:40:19.641Z,98421.78
2023-06-08T10:41:38.577Z,98430.16
2023-06-08T10:42:52.594Z,98426.84
2023-06-08T10:43:59.518Z,98424.69
2023-06-08T10:45:03.937Z,98424.94
2023-06-08T10:46:06.047Z,98431.16
2023-06-08T10:47:09.880Z,98424.22
2023-06-08T10:48:20.365Z,98423.94
2023-06-08T10:49:22.329Z,98422.34
2023-06-08T10:50:25.570Z,98418.81
2023-06-08T10:51:27.576Z,98423.63
2023-06-08T10:52:31.227Z,98426.81
2023-06-08T10:53:56.454Z,98432.66
2023-06-08T10:55:01.154Z,98432.50
2023-06-08T10:56:03.030Z,98431.06
2023-06-08T10:57:15.108Z,98427.97
2023-06-08T10:58:20.231Z,98426.16
2023-06-08T10:59:35.015Z,98428.53
2023-06-08T11:00:45.308Z,98415.88
2023-06-08T11:01:47.461Z,98425.78
2023-06-08T11:02:50.668Z,98426.16
2023-06-08T11:03:59.647Z,98421.56
2023-06-08T11:05:03.669Z,98411.31
2023-06-08T11:06:14.839Z,98417.69
2023-06-08T11:07:20.911Z,98416.84
2023-06-08T11:08:24.060Z,98417.03
2023-06-08T11:09:25.974Z,98417.03
2023-06-08T11:10:29.251Z,98409.88
2023-06-08T11:11:32.647Z,98408.84
2023-06-08T11:12:34.540Z,98409.41
2023-06-08T11:13:37.328Z,98412.38
2023-06-08T11:14:39.137Z,98411.25
2023-06-08T11:15:45.148Z,98411.47
2023-06-08T11:16:49.554Z,98403.31
2023-06-08T11:17:56.378Z,98403.19
2023-06-08T11:19:00.679Z,98407.28
2023-06-08T11:20:05.320Z,98406.06
2023-06-08T11:21:08.145Z,98400.34
2023-06-08T11:22:10.040Z,98407.69
2023-06-08T11:23:14.182Z,98405.00
2023-06-08T11:24:16.578Z,98396.59
2023-06-08T11:25:20.424Z,98399.03
2023-06-08T11:26:23.789Z,98395.44
2023-06-08T11:27:26.656Z,98395.28
2023-06-08T11:28:28.831Z,98393.28
2023-06-08T11:29:31.959Z,98393.06
2023-06-08T11:30:34.720Z,98398.22
2023-06-08T11:31:41.439Z,98389.31
2023-06-08T11:32:44.665Z,98391.72
2023-06-08T11:33:49.311Z,98389.50
2023-06-08T11:34:54.288Z,98386.78
2023-06-08T11:35:57.174Z,98385.25
2023-06-08T11:36:59.194Z,98388.31
2023-06-08T11:38:02.671Z,98381.50
2023-06-08T11:39:04.534Z,98388.78
2023-06-08T11:40:12.150Z,98375.78
2023-06-08T11:41:15.560Z,98378.88
2023-06-08T11:42:17.450Z,98375.75
2023-06-08T11:43:22.355Z,98378.59
2023-06-08T11:44:26.899Z,98381.19
2023-06-08T11:45:30.284Z,98380.63
2023-06-08T11:46:33.845Z,98378.16
2023-06-08T11:47:36.830Z,98378.03
2023-06-08T11:48:41.856Z,98368.66
2023-06-08T11:49:55.316Z,98374.34
2023-06-08T11:50:58.169Z,98373.19
2023-06-08T11:51:59.994Z,98369.47
2023-06-08T11:53:03.672Z,98367.03
2023-06-08T11:54:05.687Z,98364.47
2023-06-08T11:55:13.013Z,98358.44
2023-06-08T11:56:14.861Z,98364.53
2023-06-08T11:57:17.718Z,98361.19
2023-06-08T11:58:24.437Z,98365.97
2023-06-08T11:59:27.943Z,98365.91
2023-06-08T12:00:32.338Z,98358.53
2023-06-08T12:01:36.267Z,98360.47
2023-06-08T12:02:39.270Z,98357.28
2023-06-08T12:03:45.091Z,98358.91
2023-06-08T12:04:47.516Z,98349.00
2023-06-08T12:05:58.929Z,98357.53
2023-06-08T12:07:10.559Z,98357.22
2023-06-08T12:08:15.653Z,98350.81
2023-06-08T12:09:18.576Z,98352.41
2023-06-08T12:10:20.479Z,98352.34
2023-06-08T12:11:25.856Z,98358.09
2023-06-08T12:12:30.359Z,98364.75
2023-06-08T12:13:33.147Z,98362.31
2023-06-08T12:14:35.180Z,98355.81
2023-06-08T12:15:39.256Z,98354.94
2023-06-08T12:16:44.121Z,98350.16
2023-06-08T12:17:47.588Z,98357.75
2023-06-08T12:18:50.483Z,98353.97
2023-06-08T12:19:55.605Z,98353.56
2023-06-08T12:20:59.710Z,98359.66
2023-06-08T12:22:02.018Z,98351.84
2023-06-08T12:23:05.890Z,98349.72
2023-06-08T12:24:07.949Z,98346.00
2023-06-08T12:25:10.954Z,98354.28
2023-06-08T12:26:14.715Z,98351.13
2023-06-08T12:27:16.562Z,98349.47
2023-06-08T12:28:20.112Z,98353.22
2023-06-08T12:29:23.507Z,98353.31
2023-06-08T12:30:25.725Z,98349.34
2023-06-08T12:31:29.144Z,98355.81
2023-06-08T12:32:33.281Z,98356.41
2023-06-08T12:33:36.302Z,98348.59
2023-06-08T12:34:38.145Z,98348.34
2023-06-08T12:35:41.670Z,98349.91